createdAt,value
2018-07-14T00:00:30.494Z,19.20
2018-07-14T00:02:58.227Z,19.60
2018-07-14T00:07:53.675Z,19.50
2018-07-14T00:10:21.481Z,19.60
2018-07-14T00:12:49.297Z,19.30
2018-07-14T00:15:17.144Z,19.20
2018-07-14T00:17:44.856Z,19.10
2018-07-14T00:20:12.625Z,19.10
2018-07-14T00:22:40.378Z,19.10
2018-07-14T00:25:08.135Z,19.00
2018-07-14T00:27:35.965Z,18.90
2018-07-14T00:32:31.483Z,19.20
2018-07-14T00:34:59.250Z,18.80
2018-07-14T00:37:27.004Z,19.00
2018-07-14T00:39:54.878Z,18.80
2018-07-14T00:42:22.678Z,18.90
2018-07-14T00:44:50.503Z,19.30
2018-07-14T00:47:18.235Z,18.60
2018-07-14T00:49:46.331Z,18.80
2018-07-14T00:52:14.076Z,18.70
2018-07-14T00:54:41.839Z,18.90
2018-07-14T00:57:09.605Z,18.70
2018-07-14T00:59:37.423Z,18.70
2018-07-14T01:04:32.803Z,18.70
2018-07-14T01:07:00.563Z,18.50
2018-07-14T01:09:28.279Z,18.10
2018-07-14T01:14:23.636Z,18.60
2018-07-14T01:16:51.419Z,18.40
2018-07-14T01:19:19.203Z,18.50
2018-07-14T01:21:46.974Z,18.70
2018-07-14T01:24:14.794Z,18.60
2018-07-14T01:26:44.295Z,18.60
2018-07-14T01:29:13.089Z,18.60
2018-07-14T01:31:40.903Z,18.60
2018-07-14T01:34:08.619Z,18.20
2018-07-14T01:36:36.362Z,18.70
2018-07-14T01:39:05.123Z,18.40
2018-07-14T01:41:32.879Z,18.40
2018-07-14T01:44:00.623Z,18.20
2018-07-14T01:46:28.375Z,18.30
2018-07-14T01:48:56.124Z,18.10
2018-07-14T01:51:23.842Z,18.10
2018-07-14T01:53:51.562Z,18.20
2018-07-14T01:56:19.306Z,18.10
2018-07-14T01:58:47.219Z,18.00
2018-07-14T02:01:15.001Z,18.20
2018-07-14T02:03:42.776Z,18.20
2018-07-14T02:06:10.562Z,18.30
2018-07-14T02:13:33.559Z,18.20
2018-07-14T02:16:01.318Z,18.10
2018-07-14T02:18:29.051Z,17.70
2018-07-14T02:20:56.779Z,18.10
2018-07-14T02:23:25.719Z,17.60
2018-07-14T02:25:53.536Z,17.60
2018-07-14T02:28:21.267Z,17.60
2018-07-14T02:30:49.070Z,17.70
2018-07-14T02:33:16.771Z,17.70
2018-07-14T02:35:44.531Z,17.50
2018-07-14T02:38:12.264Z,17.60
2018-07-14T02:40:40.015Z,17.30
2018-07-14T02:43:07.739Z,17.40
2018-07-14T02:48:03.123Z,17.70
2018-07-14T02:50:30.856Z,17.40
2018-07-14T02:52:58.632Z,17.30
2018-07-14T02:55:26.403Z,17.50
2018-07-14T02:57:54.222Z,17.20
2018-07-14T03:02:49.630Z,17.10
2018-07-14T03:05:17.378Z,16.90
2018-07-14T03:07:45.132Z,17.30
2018-07-14T03:10:12.873Z,17.20
2018-07-14T03:12:40.624Z,17.10
2018-07-14T03:15:08.400Z,17.20
2018-07-14T03:17:36.303Z,17.40
2018-07-14T03:20:04.170Z,17.30
2018-07-14T03:22:31.905Z,17.30
2018-07-14T03:24:59.622Z,17.20
2018-07-14T03:27:27.311Z,17.50
2018-07-14T03:29:55.015Z,17.10
2018-07-14T03:32:22.732Z,17.10
2018-07-14T03:34:50.698Z,17.10
2018-07-14T03:39:46.007Z,17.10
2018-07-14T03:42:13.739Z,17.10
2018-07-14T03:44:41.463Z,17.30
2018-07-14T03:47:09.180Z,17.30
2018-07-14T03:49:36.946Z,17.40
2018-07-14T03:52:04.743Z,17.40
2018-07-14T03:54:32.448Z,17.20
2018-07-14T03:57:00.384Z,17.30
2018-07-14T03:59:28.129Z,17.30
2018-07-14T04:01:55.851Z,17.20
2018-07-14T04:04:23.596Z,17.20
2018-07-14T04:06:51.332Z,17.30
2018-07-14T04:09:19.095Z,17.20
2018-07-14T04:11:46.812Z,17.30
2018-07-14T04:14:14.539Z,17.00
2018-07-14T04:16:42.271Z,17.20
2018-07-14T04:21:37.633Z,17.40
2018-07-14T04:24:05.354Z,17.30
2018-07-14T04:26:33.120Z,17.40
2018-07-14T04:29:00.850Z,17.40
2018-07-14T04:31:28.605Z,17.40
2018-07-14T04:33:56.331Z,17.30
2018-07-14T04:36:24.068Z,17.30
2018-07-14T04:38:51.803Z,17.20
2018-07-14T04:41:19.574Z,17.40
2018-07-14T04:43:47.305Z,17.60
2018-07-14T04:46:15.062Z,17.80
2018-07-14T04:48:42.800Z,17.80
2018-07-14T04:51:10.520Z,17.50
2018-07-14T04:53:38.271Z,17.60
2018-07-14T04:56:06.032Z,18.00
2018-07-14T04:58:33.771Z,17.40
2018-07-14T05:01:01.515Z,17.70
2018-07-14T05:03:29.215Z,17.70
2018-07-14T05:05:57.007Z,17.80
2018-07-14T05:08:24.736Z,18.00
2018-07-14T05:10:52.467Z,18.10
2018-07-14T05:13:20.219Z,17.80
2018-07-14T05:15:47.934Z,17.90
2018-07-14T05:20:43.231Z,18.10
2018-07-14T05:23:10.943Z,18.10
2018-07-14T05:25:38.658Z,18.40
2018-07-14T05:28:06.377Z,18.00
2018-07-14T05:30:34.079Z,18.40
2018-07-14T05:33:01.788Z,18.10
2018-07-14T05:35:29.498Z,18.70
2018-07-14T05:37:57.247Z,18.40
2018-07-14T05:40:24.947Z,18.30
2018-07-14T05:45:20.348Z,18.70
2018-07-14T05:47:48.079Z,18.70
2018-07-14T05:50:15.835Z,18.90
2018-07-14T05:52:43.544Z,18.60
2018-07-14T05:55:11.291Z,18.80
2018-07-14T05:57:39.024Z,18.70
2018-07-14T06:00:07.514Z,19.10
2018-07-14T06:02:35.279Z,18.80
2018-07-14T06:05:03.117Z,19.10
2018-07-14T06:07:30.848Z,19.10
2018-07-14T06:09:58.563Z,19.10
2018-07-14T06:12:26.307Z,19.10
2018-07-14T06:17:21.700Z,19.30
2018-07-14T06:19:49.369Z,19.30
2018-07-14T06:22:17.124Z,19.40
2018-07-14T06:24:44.839Z,19.50
2018-07-14T06:27:12.634Z,19.50
2018-07-14T06:29:40.335Z,19.60
2018-07-14T06:32:08.091Z,19.40
2018-07-14T06:34:35.831Z,19.50
2018-07-14T06:37:03.683Z,20.10
2018-07-14T06:39:31.436Z,20.00
2018-07-14T06:41:59.156Z,20.30
2018-07-14T06:44:26.890Z,20.40
2018-07-14T06:46:54.606Z,21.00
2018-07-14T06:49:22.327Z,20.80
2018-07-14T06:51:50.420Z,21.10
2018-07-14T06:54:18.189Z,21.20
2018-07-14T06:56:45.912Z,21.00
2018-07-14T06:59:13.607Z,20.80
2018-07-14T07:01:41.375Z,21.30
2018-07-14T07:04:09.089Z,21.10
2018-07-14T07:06:36.905Z,21.40
2018-07-14T07:11:32.519Z,21.90
2018-07-14T07:14:00.267Z,21.80
2018-07-14T07:16:27.994Z,21.90
2018-07-14T07:18:55.747Z,21.90
2018-07-14T07:23:51.066Z,22.10
2018-07-14T07:28:46.460Z,22.80
2018-07-14T07:31:14.111Z,22.70
2018-07-14T07:33:41.830Z,23.10
2018-07-14T07:36:09.546Z,23.10
2018-07-14T07:38:37.295Z,22.70
2018-07-14T07:41:05.053Z,22.50
2018-07-14T07:43:32.868Z,23.10
2018-07-14T07:48:28.243Z,23.80
2018-07-14T07:50:56.051Z,23.70
2018-07-14T07:53:23.767Z,23.90
2018-07-14T07:55:51.534Z,24.10
2018-07-14T07:58:19.280Z,24.60
2018-07-14T08:00:46.997Z,24.60
2018-07-14T08:03:14.719Z,24.60
2018-07-14T08:05:42.437Z,24.60
2018-07-14T08:08:10.205Z,24.00
2018-07-14T08:10:37.948Z,24.40
2018-07-14T08:13:05.735Z,24.50
2018-07-14T08:18:01.083Z,24.90
2018-07-14T08:22:56.495Z,25.00
2018-07-14T08:25:24.207Z,25.30
2018-07-14T08:27:51.889Z,25.80
2018-07-14T08:30:19.713Z,26.00
2018-07-14T08:32:47.472Z,26.20
2018-07-14T08:35:15.187Z,26.60
2018-07-14T08:37:42.906Z,27.40
2018-07-14T08:40:10.627Z,27.60
2018-07-14T08:42:38.374Z,27.70
2018-07-14T08:45:06.179Z,28.30
2018-07-14T08:47:33.987Z,29.20
2018-07-14T08:50:01.905Z,30.70
2018-07-14T08:54:57.367Z,31.10
2018-07-14T08:57:25.082Z,31.50
2018-07-14T09:02:20.396Z,33.30
2018-07-14T09:04:48.123Z,33.50
2018-07-14T09:07:15.821Z,33.90
2018-07-14T09:09:43.527Z,33.30
2018-07-14T09:12:11.252Z,33.90
2018-07-14T09:14:38.969Z,33.30
2018-07-14T09:17:06.707Z,33.50
2018-07-14T09:22:02.015Z,32.40
2018-07-14T09:24:29.736Z,32.10
2018-07-14T09:26:57.515Z,32.50
2018-07-14T09:29:25.226Z,33.80
2018-07-14T09:34:20.527Z,35.00
2018-07-14T09:36:48.259Z,34.70
2018-07-14T09:39:15.986Z,33.70
2018-07-14T09:41:43.695Z,32.20
2018-07-14T09:44:11.436Z,32.40
2018-07-14T09:46:39.147Z,32.90
2018-07-14T09:49:06.908Z,33.30
2018-07-14T09:51:34.613Z,33.10
2018-07-14T09:54:02.379Z,33.30
2018-07-14T09:56:30.079Z,33.00
2018-07-14T09:58:57.801Z,34.00
2018-07-14T10:01:25.547Z,34.60
2018-07-14T10:06:20.880Z,35.90
2018-07-14T10:08:48.609Z,36.20
2018-07-14T10:11:16.328Z,37.00
2018-07-14T10:13:44.063Z,36.40
2018-07-14T10:16:11.824Z,35.80
2018-07-14T10:21:07.146Z,34.60
2018-07-14T10:26:02.563Z,34.00
2018-07-14T10:28:30.303Z,33.80
2018-07-14T10:30:58.027Z,34.80
2018-07-14T10:33:25.775Z,35.50
2018-07-14T10:35:53.476Z,35.20
2018-07-14T10:38:21.207Z,34.00
2018-07-14T10:40:48.911Z,33.60
2018-07-14T10:43:16.607Z,34.90
2018-07-14T10:45:44.334Z,34.80
2018-07-14T10:48:12.060Z,35.00
2018-07-14T10:50:39.820Z,34.80
2018-07-14T10:53:07.550Z,34.50
2018-07-14T10:55:35.267Z,34.60
2018-07-14T10:58:03.107Z,35.60
2018-07-14T11:00:30.857Z,34.20
2018-07-14T11:02:58.558Z,34.60
2018-07-14T11:05:26.343Z,35.20
2018-07-14T11:07:54.104Z,36.10
2018-07-14T11:10:21.816Z,36.90
2018-07-14T11:12:49.552Z,37.30
2018-07-14T11:15:17.279Z,38.70
2018-07-14T11:17:45.107Z,39.50
2018-07-14T11:20:12.781Z,37.70
2018-07-14T11:25:08.188Z,37.70
2018-07-14T11:27:35.899Z,38.00
2018-07-14T11:30:03.730Z,37.70
2018-07-14T11:34:59.102Z,38.00
2018-07-14T11:37:26.840Z,37.50
2018-07-14T11:42:22.147Z,37.10
2018-07-14T11:47:17.604Z,38.20
2018-07-14T11:49:45.355Z,38.90
2018-07-14T11:52:13.158Z,39.30
2018-07-14T11:54:40.895Z,38.20
2018-07-14T11:57:08.710Z,38.20
2018-07-14T11:59:36.457Z,37.00
2018-07-14T12:02:04.265Z,37.00
2018-07-14T12:04:31.965Z,38.20
2018-07-14T12:06:59.710Z,37.40
2018-07-14T12:09:27.443Z,37.90
2018-07-14T12:11:55.178Z,35.70
2018-07-14T12:14:22.928Z,36.60
2018-07-14T12:16:50.658Z,36.00
2018-07-14T12:21:46.123Z,34.40
2018-07-14T12:24:13.906Z,34.50
2018-07-14T12:26:41.688Z,35.30
2018-07-14T12:29:09.435Z,35.20
2018-07-14T12:31:37.163Z,34.50
2018-07-14T12:34:05.243Z,34.80
2018-07-14T12:36:32.978Z,33.70
2018-07-14T12:41:28.346Z,33.50
2018-07-14T12:43:56.058Z,34.10
2018-07-14T12:46:23.847Z,34.70
2018-07-14T12:48:51.587Z,35.60
2018-07-14T12:53:47.020Z,33.10
2018-07-14T12:56:14.751Z,32.10
2018-07-14T12:58:42.507Z,31.70
2018-07-14T13:01:10.303Z,33.30
2018-07-14T13:03:38.067Z,34.00
2018-07-14T13:06:05.866Z,34.80
2018-07-14T13:08:33.624Z,35.90
2018-07-14T13:13:28.975Z,34.90
2018-07-14T13:15:56.684Z,34.20
2018-07-14T13:18:24.408Z,34.50
2018-07-14T13:20:52.188Z,35.00
2018-07-14T13:23:19.932Z,34.20
2018-07-14T13:25:48.103Z,34.30
2018-07-14T13:28:15.855Z,33.50
2018-07-14T13:30:43.619Z,33.40
2018-07-14T13:33:11.370Z,33.10
2018-07-14T13:35:39.166Z,33.50
2018-07-14T13:38:06.910Z,33.30
2018-07-14T13:40:34.652Z,33.50
2018-07-14T13:45:30.053Z,32.80
2018-07-14T13:47:57.810Z,33.20
2018-07-14T13:50:25.536Z,33.30
2018-07-14T13:52:53.300Z,33.80
2018-07-14T13:55:21.059Z,33.40
2018-07-14T13:57:48.847Z,34.00
2018-07-14T14:00:16.580Z,35.00
2018-07-14T14:02:44.287Z,34.10
2018-07-14T14:05:12.055Z,33.20
2018-07-14T14:07:39.834Z,33.90
2018-07-14T14:10:07.567Z,34.30
2018-07-14T14:12:35.303Z,33.70
2018-07-14T14:15:03.187Z,33.60
2018-07-14T14:17:30.924Z,33.20
2018-07-14T14:19:58.738Z,33.90
2018-07-14T14:24:54.235Z,32.50
2018-07-14T14:27:22.027Z,32.90
2018-07-14T14:29:49.808Z,32.70
2018-07-14T14:32:17.531Z,32.10
2018-07-14T14:34:45.303Z,31.60
2018-07-14T14:37:13.042Z,32.30
2018-07-14T14:42:08.415Z,32.80
2018-07-14T14:44:36.138Z,32.30
2018-07-14T14:47:03.891Z,32.70
2018-07-14T14:49:31.636Z,32.80
2018-07-14T14:51:59.440Z,32.20
2018-07-14T14:54:27.185Z,32.50
2018-07-14T14:59:22.555Z,32.80
2018-07-14T15:01:50.327Z,32.90
2018-07-14T15:04:18.060Z,32.50
2018-07-14T15:06:45.799Z,32.50
2018-07-14T15:11:41.160Z,32.30
2018-07-14T15:14:08.936Z,32.40
2018-07-14T15:16:36.694Z,32.20
2018-07-14T15:19:04.408Z,31.80
2018-07-14T15:21:32.139Z,32.00
2018-07-14T15:23:59.903Z,32.10
2018-07-14T15:26:27.661Z,32.30
2018-07-14T15:28:55.408Z,32.10
2018-07-14T15:31:23.581Z,32.30
2018-07-14T15:33:51.318Z,32.10
2018-07-14T15:38:46.742Z,31.10
2018-07-14T15:41:14.519Z,31.20
2018-07-14T15:43:42.475Z,31.20
2018-07-14T15:46:10.294Z,31.10
2018-07-14T15:48:39.086Z,31.40
2018-07-14T15:51:06.902Z,31.00
2018-07-14T15:53:34.676Z,31.10
2018-07-14T15:56:02.474Z,31.30
2018-07-14T15:58:30.246Z,31.20
2018-07-14T16:00:58.179Z,31.10
2018-07-14T16:03:25.985Z,30.90
2018-07-14T16:05:53.777Z,30.90
2018-07-14T16:08:21.529Z,30.70
2018-07-14T16:10:49.459Z,31.10
2018-07-14T16:13:17.229Z,30.70
2018-07-14T16:15:44.999Z,30.30
2018-07-14T16:18:12.748Z,30.30
2018-07-14T16:20:40.558Z,30.00
2018-07-14T16:23:08.345Z,30.20
2018-07-14T16:25:36.141Z,30.20
2018-07-14T16:28:03.867Z,30.10
2018-07-14T16:32:59.228Z,29.90
2018-07-14T16:35:26.956Z,29.80
2018-07-14T16:37:54.695Z,29.80
2018-07-14T16:40:22.421Z,29.40
2018-07-14T16:42:50.191Z,29.60
2018-07-14T16:45:17.924Z,29.20
2018-07-14T16:50:13.626Z,29.10
2018-07-14T16:52:41.407Z,29.10
2018-07-14T16:55:09.235Z,28.90
2018-07-14T16:57:37.225Z,29.10
2018-07-14T17:00:05.259Z,28.90
2018-07-14T17:02:33.239Z,29.00
2018-07-14T17:05:01.015Z,28.90
2018-07-14T17:07:28.943Z,28.70
2018-07-14T17:09:56.741Z,28.60
2018-07-14T17:12:24.496Z,28.80
2018-07-14T17:14:52.239Z,28.50
2018-07-14T17:17:20.000Z,28.20
2018-07-14T17:19:47.710Z,28.30
2018-07-14T17:22:15.448Z,28.20
2018-07-14T17:24:43.161Z,28.20
2018-07-14T17:27:10.979Z,28.30
2018-07-14T17:32:07.211Z,28.00
2018-07-14T17:34:34.944Z,28.30
2018-07-14T17:37:02.681Z,28.30
2018-07-14T17:39:30.404Z,28.10
2018-07-14T17:41:58.113Z,28.10
2018-07-14T17:44:25.843Z,28.00
2018-07-14T17:46:53.611Z,27.70
2018-07-14T17:49:21.355Z,27.60
2018-07-14T17:51:49.235Z,27.70
2018-07-14T17:54:17.027Z,28.00
2018-07-14T17:56:44.816Z,27.60
2018-07-14T17:59:12.643Z,27.50
2018-07-14T18:01:40.428Z,27.30
2018-07-14T18:04:08.192Z,27.40
2018-07-14T18:06:36.012Z,27.30
2018-07-14T18:09:05.137Z,27.20
2018-07-14T18:11:32.859Z,27.20
2018-07-14T18:16:28.228Z,27.20
2018-07-14T18:18:55.985Z,27.00
2018-07-14T18:21:23.775Z,26.70
2018-07-14T18:23:51.540Z,27.10
2018-07-14T18:26:19.386Z,27.10
2018-07-14T18:28:47.055Z,26.90
2018-07-14T18:31:14.835Z,27.00
2018-07-14T18:33:42.609Z,27.00
2018-07-14T18:36:10.437Z,26.90
2018-07-14T18:41:05.752Z,26.30
2018-07-14T18:43:33.528Z,26.30
2018-07-14T18:46:01.296Z,26.30
2018-07-14T18:48:29.036Z,26.10
2018-07-14T18:50:56.760Z,26.20
2018-07-14T18:53:24.470Z,26.30
2018-07-14T18:55:52.233Z,26.10
2018-07-14T18:58:20.004Z,26.10
2018-07-14T19:00:47.804Z,25.90
2018-07-14T19:03:15.517Z,25.70
2018-07-14T19:05:43.276Z,25.60
2018-07-14T19:08:11.016Z,25.60
2018-07-14T19:10:38.784Z,25.90
2018-07-14T19:13:06.783Z,25.40
2018-07-14T19:15:34.545Z,25.50
2018-07-14T19:18:02.349Z,25.50
2018-07-14T19:20:30.073Z,25.40
2018-07-14T19:22:57.815Z,25.40
2018-07-14T19:27:53.168Z,25.30
2018-07-14T19:30:21.734Z,25.20
2018-07-14T19:32:49.534Z,24.60
2018-07-14T19:35:17.267Z,25.20
2018-07-14T19:40:12.733Z,25.10
2018-07-14T19:42:40.502Z,24.90
2018-07-14T19:45:08.310Z,24.20
2018-07-14T19:47:36.056Z,24.50
2018-07-14T19:50:03.864Z,24.80
2018-07-14T19:52:31.599Z,24.50
2018-07-14T19:54:59.358Z,24.30
2018-07-14T19:57:27.156Z,24.30
2018-07-14T19:59:54.874Z,24.30
2018-07-14T20:02:22.592Z,24.20
2018-07-14T20:04:50.286Z,24.20
2018-07-14T20:07:18.075Z,23.80
2018-07-14T20:09:45.779Z,23.70
2018-07-14T20:12:13.512Z,23.80
2018-07-14T20:17:08.831Z,23.60
2018-07-14T20:19:36.611Z,23.60
2018-07-14T20:22:04.324Z,23.60
2018-07-14T20:24:32.088Z,23.60
2018-07-14T20:26:59.803Z,23.40
2018-07-14T20:31:55.132Z,23.50
2018-07-14T20:36:50.542Z,23.40
2018-07-14T20:39:18.290Z,23.10
2018-07-14T20:41:46.070Z,23.30
2018-07-14T20:44:13.831Z,23.30
2018-07-14T20:46:41.551Z,23.20
2018-07-14T20:49:09.258Z,23.30
2018-07-14T20:51:37.003Z,22.90
2018-07-14T20:54:04.969Z,22.90
2018-07-14T20:56:32.699Z,22.90
2018-07-14T20:59:00.427Z,22.80
2018-07-14T21:01:28.150Z,22.90
2018-07-14T21:03:55.888Z,22.70
2018-07-14T21:06:23.631Z,22.80
2018-07-14T21:11:19.034Z,22.60
2018-07-14T21:13:46.763Z,22.80
2018-07-14T21:16:14.512Z,22.50
2018-07-14T21:18:42.223Z,22.30
2018-07-14T21:21:10.043Z,22.10
2018-07-14T21:23:37.705Z,22.20
2018-07-14T21:26:05.433Z,22.50
2018-07-14T21:28:33.155Z,22.20
2018-07-14T21:31:00.878Z,22.10
2018-07-14T21:35:56.264Z,22.20
2018-07-14T21:38:24.035Z,22.10
2018-07-14T21:40:51.778Z,22.20
2018-07-14T21:43:19.477Z,22.20
2018-07-14T21:45:47.219Z,22.00
2018-07-14T21:48:14.949Z,22.40
2018-07-14T21:50:42.769Z,22.00
2018-07-14T21:53:10.443Z,22.30
2018-07-14T21:58:05.835Z,21.70
2018-07-14T22:01:39.987Z,21.60
2018-07-14T22:04:08.088Z,21.90
2018-07-14T22:06:35.894Z,21.70
2018-07-14T22:09:04.251Z,21.70
2018-07-14T22:11:31.979Z,21.90
2018-07-14T22:16:27.304Z,21.30
2018-07-14T22:21:22.664Z,21.30
2018-07-14T22:23:50.679Z,21.50
2018-07-14T22:26:18.435Z,21.20
2018-07-14T22:28:46.200Z,21.40
2018-07-14T22:31:13.947Z,21.40
2018-07-14T22:33:41.682Z,21.40
2018-07-14T22:36:09.455Z,21.30
2018-07-14T22:38:37.207Z,21.10
2018-07-14T22:41:05.134Z,21.30
2018-07-14T22:43:32.883Z,21.20
2018-07-14T22:46:00.599Z,21.30
2018-07-14T22:48:28.346Z,21.30
2018-07-14T22:50:56.105Z,21.20
2018-07-14T22:55:51.447Z,20.60
2018-07-14T22:58:19.211Z,20.80
2018-07-14T23:00:47.029Z,20.40
2018-07-14T23:03:14.712Z,20.50
2018-07-14T23:05:42.455Z,20.40
2018-07-14T23:08:10.232Z,20.60
2018-07-14T23:10:37.986Z,20.60
2018-07-14T23:13:05.715Z,20.30
2018-07-14T23:15:33.419Z,20.70
2018-07-14T23:18:01.139Z,20.50
2018-07-14T23:20:28.855Z,20.30
2018-07-14T23:22:56.607Z,20.30
2018-07-14T23:25:24.340Z,20.30
2018-07-14T23:27:52.075Z,20.20
2018-07-14T23:30:19.810Z,20.50
2018-07-14T23:32:47.567Z,20.20
2018-07-14T23:35:15.292Z,20.40
2018-07-14T23:37:43.008Z,20.20
2018-07-14T23:40:10.757Z,19.80
2018-07-14T23:42:38.480Z,19.90
2018-07-14T23:45:06.219Z,19.70
2018-07-14T23:47:34.010Z,19.80
2018-07-14T23:50:01.867Z,19.40
2018-07-14T23:52:29.678Z,19.90
2018-07-14T23:54:57.466Z,19.70
2018-07-14T23:57:25.239Z,19.60
